Time;durP1;ratioP1;P1;durP2;ratioP2;P2;SDS_P1;SDS_P2;PMS_P1;PMS_P2;Temp;Humidity;BMP_temperature;BMP_pressure;BME280_temperature;BME280_humidity;BME280_pressure;Samples;Min_cycle;Max_cycle;Signal;HPM_P1;HPM_P2
2023/09/07 00:01:28;;;;;;;22.13;6.88;;;24.00;60.00;;;;;;6128841;28;80580;-56
2023/09/07 00:04:28;;;;;;;12.70;6.85;;;24.00;60.10;;;;;;6127831;28;80457;-57
2023/09/07 00:07:29;;;;;;;11.90;7.05;;;24.00;60.00;;;;;;6130357;28;81271;-56
2023/09/07 00:10:29;;;;;;;14.15;7.65;;;24.00;60.10;;;;;;6128828;28;80981;-57
2023/09/07 00:13:30;;;;;;;12.98;7.40;;;24.00;60.10;;;;;;6129014;28;80359;-55
2023/09/07 00:16:30;;;;;;;13.32;7.72;;;24.00;60.10;;;;;;6135299;28;81613;-55
2023/09/07 00:19:33;;;;;;;15.13;6.90;;;24.00;60.20;;;;;;6131229;28;80842;-55
2023/09/07 00:22:34;;;;;;;9.50;6.68;;;24.00;60.10;;;;;;6132096;28;80357;-56
2023/09/07 00:25:35;;;;;;;14.25;7.18;;;23.90;60.10;;;;;;6137210;28;80941;-55
2023/09/07 00:28:35;;;;;;;13.43;7.40;;;23.90;60.10;;;;;;6141289;28;81476;-58
2023/09/07 00:31:36;;;;;;;12.20;6.90;;;24.00;60.30;;;;;;6124528;28;80831;-57
2023/09/07 00:34:36;;;;;;;13.70;7.47;;;24.00;60.10;;;;;;6127768;28;82490;-58
2023/09/07 00:37:37;;;;;;;14.13;8.50;;;24.00;60.50;;;;;;6128881;28;80780;-58
2023/09/07 00:40:37;;;;;;;10.93;7.18;;;24.00;60.50;;;;;;6128101;28;80784;-57
2023/09/07 00:43:39;;;;;;;12.48;7.30;;;24.00;60.00;;;;;;6133903;28;82224;-58
2023/09/07 00:46:40;;;;;;;14.50;6.80;;;23.90;60.00;;;;;;6127091;28;81831;-60
2023/09/07 00:49:41;;;;;;;11.48;6.90;;;23.90;60.10;;;;;;6133304;28;83205;-51
2023/09/07 00:52:41;;;;;;;12.20;7.03;;;23.90;60.10;;;;;;6121800;28;83344;-50
2023/09/07 00:55:42;;;;;;;11.52;7.22;;;23.90;60.00;;;;;;6127999;28;81296;-49
2023/09/07 00:58:42;;;;;;;11.85;7.60;;;23.90;60.00;;;;;;6135323;28;80855;-53
2023/09/07 01:01:43;;;;;;;12.20;7.30;;;23.90;60.00;;;;;;6126223;28;81893;-54
2023/09/07 01:04:44;;;;;;;10.65;7.32;;;23.90;60.00;;;;;;6140046;28;81494;-51
2023/09/07 01:07:45;;;;;;;11.68;6.82;;;23.90;60.00;;;;;;6126664;28;82916;-51
2023/09/07 01:10:46;;;;;;;12.55;6.70;;;23.90;60.00;;;;;;6126965;28;80471;-54
2023/09/07 01:13:46;;;;;;;11.73;6.72;;;23.90;60.00;;;;;;6124332;28;83331;-56
2023/09/07 01:16:47;;;;;;;9.40;6.50;;;23.90;60.00;;;;;;6127352;28;83070;-56
2023/09/07 01:19:49;;;;;;;10.82;6.65;;;23.90;60.00;;;;;;6139474;28;80814;-55
2023/09/07 01:22:50;;;;;;;10.52;7.30;;;23.80;59.90;;;;;;6126584;28;83293;-52
2023/09/07 01:25:50;;;;;;;12.85;7.00;;;23.80;59.90;;;;;;6128771;28;83355;-58
2023/09/07 01:28:51;;;;;;;11.52;6.78;;;23.80;60.00;;;;;;6137525;28;81530;-57
2023/09/07 01:31:52;;;;;;;12.60;6.93;;;23.90;60.80;;;;;;6122441;28;82334;-57
2023/09/07 01:34:52;;;;;;;13.00;6.80;;;23.90;60.00;;;;;;6128381;28;80538;-58
2023/09/07 01:37:53;;;;;;;12.80;7.25;;;23.90;59.70;;;;;;6134435;28;80529;-56
2023/09/07 01:40:53;;;;;;;9.25;6.68;;;23.80;59.70;;;;;;6132994;28;80944;-58
2023/09/07 01:43:54;;;;;;;12.18;7.60;;;23.90;60.00;;;;;;6125809;28;82579;-57
2023/09/07 01:46:54;;;;;;;10.73;6.63;;;23.80;60.00;;;;;;6125203;28;83146;-55
2023/09/07 01:49:55;;;;;;;13.13;7.93;;;23.80;60.00;;;;;;6125842;28;82540;-58
2023/09/07 01:52:56;;;;;;;11.90;6.60;;;23.80;60.00;;;;;;6117043;28;80450;-57
2023/09/07 01:55:58;;;;;;;12.18;6.82;;;23.80;60.00;;;;;;6138406;28;83270;-54
2023/09/07 01:58:59;;;;;;;10.60;7.13;;;23.80;59.80;;;;;;6146039;28;80921;-55
2023/09/07 02:02:00;;;;;;;12.05;6.90;;;23.80;59.70;;;;;;6129263;28;84000;-54
2023/09/07 02:05:00;;;;;;;12.68;6.70;;;23.80;59.80;;;;;;6128961;28;82240;-55
2023/09/07 02:08:01;;;;;;;12.23;8.05;;;23.80;59.90;;;;;;6123017;28;80820;-56
2023/09/07 02:11:02;;;;;;;12.25;7.40;;;23.80;59.70;;;;;;6129398;28;81488;-57
2023/09/07 02:14:03;;;;;;;14.20;7.10;;;23.80;59.70;;;;;;6128916;28;83406;-58
2023/09/07 02:17:03;;;;;;;11.90;7.03;;;23.80;59.60;;;;;;6129124;28;81593;-57
2023/09/07 02:20:10;;;;;;;11.43;6.85;;;23.70;59.60;;;;;;6129119;28;83179;-56
2023/09/07 02:23:11;;;;;;;11.48;6.43;;;23.70;59.60;;;;;;6126510;28;83255;-69
2023/09/07 02:26:12;;;;;;;10.40;7.40;;;23.80;59.60;;;;;;6130153;28;81957;-67
2023/09/07 02:29:12;;;;;;;10.65;6.78;;;23.80;60.20;;;;;;6139058;28;82104;-72
2023/09/07 02:32:13;;;;;;;12.25;6.32;;;23.80;60.00;;;;;;6123348;28;81750;-70
2023/09/07 02:35:13;;;;;;;11.25;7.35;;;23.80;59.40;;;;;;6139969;28;81065;-70
2023/09/07 02:38:15;;;;;;;8.05;5.97;;;23.80;59.40;;;;;;6129435;28;83744;-69
2023/09/07 02:41:16;;;;;;;13.75;7.40;;;23.80;59.40;;;;;;6130427;28;81230;-68
2023/09/07 02:44:16;;;;;;;11.43;7.03;;;23.70;59.40;;;;;;6140495;28;82062;-69
2023/09/07 02:47:17;;;;;;;11.98;6.40;;;23.70;59.30;;;;;;6129110;28;83133;-69
2023/09/07 02:50:17;;;;;;;12.18;6.57;;;23.70;59.40;;;;;;6142092;28;81432;-68
2023/09/07 02:53:18;;;;;;;15.27;7.65;;;23.70;59.30;;;;;;6121992;28;83519;-69
2023/09/07 02:56:19;;;;;;;11.25;7.53;;;23.70;59.30;;;;;;6127866;28;83791;-68
2023/09/07 02:59:20;;;;;;;11.43;6.47;;;23.70;59.40;;;;;;6114591;28;83724;-59
2023/09/07 03:02:21;;;;;;;15.18;7.82;;;23.70;59.40;;;;;;6136762;28;83069;-58
2023/09/07 03:05:22;;;;;;;11.18;7.30;;;23.70;59.20;;;;;;6154192;28;81428;-53
2023/09/07 03:08:24;;;;;;;11.38;7.22;;;23.80;59.30;;;;;;6129391;28;82830;-56
2023/09/07 03:11:25;;;;;;;9.82;6.63;;;23.80;59.30;;;;;;6128040;28;83074;-55
2023/09/07 03:14:26;;;;;;;14.20;7.93;;;23.70;59.10;;;;;;6127626;28;81478;-56
2023/09/07 03:17:27;;;;;;;13.85;7.32;;;23.80;59.10;;;;;;6126618;28;86331;-55
2023/09/07 03:20:28;;;;;;;12.43;6.95;;;23.70;59.20;;;;;;6129758;28;82133;-56
2023/09/07 03:23:28;;;;;;;13.10;6.68;;;23.70;59.50;;;;;;6142667;28;80488;-56
2023/09/07 03:26:29;;;;;;;12.88;7.03;;;23.70;59.40;;;;;;6130319;28;83949;-56
2023/09/07 03:29:30;;;;;;;10.35;6.82;;;23.80;59.50;;;;;;6127659;28;83236;-53
2023/09/07 03:32:32;;;;;;;9.07;6.40;;;23.70;59.70;;;;;;6129156;28;83297;-56
2023/09/07 03:35:33;;;;;;;9.95;6.47;;;23.70;60.00;;;;;;6127300;28;80569;-56
2023/09/07 03:38:34;;;;;;;12.38;7.28;;;23.80;59.50;;;;;;6127108;28;80407;-57
2023/09/07 03:41:34;;;;;;;9.38;6.82;;;23.80;60.30;;;;;;6127236;28;82920;-51
2023/09/07 03:44:35;;;;;;;11.63;6.88;;;23.80;59.90;;;;;;6127211;28;83039;-52
2023/09/07 03:47:36;;;;;;;12.65;6.18;;;23.80;59.80;;;;;;6126769;28;83268;-49
2023/09/07 03:50:36;;;;;;;13.70;7.05;;;23.80;59.90;;;;;;6126755;28;83451;-48
2023/09/07 03:53:38;;;;;;;9.73;6.30;;;23.80;59.80;;;;;;6127174;28;82665;-53
2023/09/07 03:56:39;;;;;;;12.43;7.22;;;23.80;59.70;;;;;;6134277;28;83443;-54
2023/09/07 03:59:42;;;;;;;11.80;6.68;;;23.80;59.80;;;;;;6119836;28;83630;-57
2023/09/07 04:02:42;;;;;;;12.88;6.60;;;23.80;60.20;;;;;;6128963;28;81541;-54
2023/09/07 04:05:43;;;;;;;11.30;7.00;;;23.90;60.40;;;;;;6134777;28;80501;-51
2023/09/07 04:08:44;;;;;;;12.60;6.72;;;23.90;61.00;;;;;;6127706;28;80540;-52
2023/09/07 04:11:44;;;;;;;13.18;6.57;;;23.80;61.90;;;;;;6115060;28;81394;-57
2023/09/07 04:14:45;;;;;;;13.45;6.85;;;23.90;62.10;;;;;;6121455;28;81684;-53
2023/09/07 04:17:45;;;;;;;14.20;7.75;;;23.90;62.20;;;;;;6118220;28;83458;-57
2023/09/07 04:20:46;;;;;;;15.73;7.35;;;23.90;62.40;;;;;;6124367;28;83327;-58
2023/09/07 04:23:48;;;;;;;17.85;7.38;;;24.00;63.00;;;;;;6127475;28;80065;-57
2023/09/07 04:26:49;;;;;;;10.73;6.00;;;24.00;62.80;;;;;;6124771;28;81568;-57
2023/09/07 04:29:50;;;;;;;13.65;7.00;;;24.00;63.10;;;;;;6125900;28;83773;-54
2023/09/07 04:32:51;;;;;;;18.85;6.82;;;24.00;63.10;;;;;;6117757;28;80323;-56
2023/09/07 04:35:52;;;;;;;12.57;6.57;;;24.00;63.10;;;;;;6125440;28;83208;-54
2023/09/07 04:38:52;;;;;;;17.00;7.38;;;24.00;62.90;;;;;;6138625;28;83485;-59
2023/09/07 04:41:53;;;;;;;17.10;7.18;;;24.00;63.00;;;;;;6138508;28;83298;-57
2023/09/07 04:44:54;;;;;;;16.75;6.85;;;24.10;62.60;;;;;;6134286;28;84135;-56
2023/09/07 04:47:54;;;;;;;22.63;6.72;;;24.00;62.60;;;;;;6125631;28;80785;-58
2023/09/07 04:50:55;;;;;;;10.60;6.30;;;24.00;62.40;;;;;;6125012;28;83442;-53
2023/09/07 04:53:56;;;;;;;13.93;6.88;;;24.00;62.30;;;;;;6133379;28;83085;-57
2023/09/07 04:56:56;;;;;;;15.30;8.00;;;24.00;62.30;;;;;;6125182;28;81416;-56
2023/09/07 04:59:57;;;;;;;24.77;7.10;;;24.00;62.20;;;;;;6135396;28;81889;-55
2023/09/07 05:02:57;;;;;;;13.07;7.85;;;24.00;62.00;;;;;;6126060;28;80317;-58
2023/09/07 05:05:58;;;;;;;14.30;7.75;;;24.00;61.60;;;;;;6123100;28;83657;-53
2023/09/07 05:08:59;;;;;;;21.58;7.75;;;24.00;61.50;;;;;;6124568;28;81401;-53
2023/09/07 05:11:59;;;;;;;13.85;7.47;;;24.00;61.40;;;;;;6125481;28;80343;-51
2023/09/07 05:15:00;;;;;;;12.38;6.93;;;24.00;61.30;;;;;;6113608;28;86005;-53
2023/09/07 05:18:01;;;;;;;14.25;7.35;;;24.00;61.20;;;;;;6115953;28;83390;-50
2023/09/07 05:21:02;;;;;;;13.80;7.53;;;23.90;61.00;;;;;;6121220;28;83794;-50
2023/09/07 05:24:03;;;;;;;16.33;7.97;;;23.90;61.00;;;;;;6117869;28;81566;-56
2023/09/07 05:27:05;;;;;;;14.27;8.00;;;23.90;60.90;;;;;;6126338;28;80889;-51
2023/09/07 05:30:07;;;;;;;18.05;8.13;;;23.90;60.90;;;;;;6127598;28;83318;-51
2023/09/07 05:33:08;;;;;;;12.52;7.85;;;23.90;60.70;;;;;;6123132;28;81396;-50
2023/09/07 05:36:08;;;;;;;12.82;7.90;;;23.90;60.60;;;;;;6129267;28;81336;-52
2023/09/07 05:39:09;;;;;;;13.02;7.47;;;23.90;60.40;;;;;;6130201;28;83377;-54
2023/09/07 05:42:10;;;;;;;12.52;7.82;;;23.90;60.40;;;;;;6129975;28;82225;-51
2023/09/07 05:45:11;;;;;;;16.95;8.85;;;23.90;60.40;;;;;;6125231;28;80528;-58
2023/09/07 05:48:11;;;;;;;11.93;7.65;;;24.00;60.40;;;;;;6104854;28;83314;-56
2023/09/07 05:51:12;;;;;;;12.70;8.25;;;23.90;60.40;;;;;;6118968;28;83377;-55
2023/09/07 05:54:13;;;;;;;12.65;7.55;;;24.00;60.30;;;;;;6123698;28;83562;-55
2023/09/07 05:57:13;;;;;;;12.40;7.85;;;24.00;60.30;;;;;;6124373;28;83026;-57
2023/09/07 06:00:15;;;;;;;15.60;7.32;;;24.00;60.40;;;;;;6129764;28;83603;-56
2023/09/07 06:03:17;;;;;;;16.85;8.48;;;24.00;60.50;;;;;;6127649;28;85626;-68
2023/09/07 06:06:17;;;;;;;13.30;7.90;;;24.00;60.60;;;;;;6116448;28;82281;-69
2023/09/07 06:09:18;;;;;;;15.70;8.50;;;24.00;60.40;;;;;;6133447;28;83149;-70
2023/09/07 06:12:19;;;;;;;13.38;7.47;;;24.00;60.30;;;;;;6129869;28;83437;-69
2023/09/07 06:15:20;;;;;;;14.05;8.35;;;24.00;60.30;;;;;;6129332;28;82157;-69
2023/09/07 06:18:21;;;;;;;12.23;7.70;;;24.00;60.30;;;;;;6142783;28;83539;-70
2023/09/07 06:21:21;;;;;;;15.23;8.32;;;24.00;60.20;;;;;;6128205;28;80666;-52
2023/09/07 06:24:22;;;;;;;9.60;7.07;;;24.00;60.20;;;;;;6125640;28;83316;-52
2023/09/07 06:27:23;;;;;;;13.80;8.15;;;24.10;60.30;;;;;;6110830;28;83183;-55
2023/09/07 06:30:23;;;;;;;15.50;7.90;;;24.10;60.40;;;;;;6128164;28;80658;-53
2023/09/07 06:33:24;;;;;;;11.90;6.63;;;24.10;60.30;;;;;;6119147;28;80680;-54
2023/09/07 06:36:25;;;;;;;11.65;7.13;;;24.10;60.40;;;;;;6126874;28;81452;-53
2023/09/07 06:39:25;;;;;;;13.70;7.90;;;24.10;60.50;;;;;;6135262;28;80224;-65
2023/09/07 06:42:26;;;;;;;13.02;7.70;;;24.10;60.50;;;;;;6133720;28;83529;-66
2023/09/07 06:45:35;;;;;;;12.73;7.18;;;24.10;60.50;;;;;;6144307;28;83421;-67
2023/09/07 06:48:36;;;;;;;14.75;7.78;;;24.10;60.40;;;;;;6139277;28;82655;-67
2023/09/07 06:51:37;;;;;;;13.23;7.18;;;24.10;60.40;;;;;;6130209;28;82563;-66
2023/09/07 06:54:38;;;;;;;12.32;7.43;;;24.10;60.40;;;;;;6129697;28;81672;-67
2023/09/07 06:57:39;;;;;;;12.15;7.88;;;24.10;60.50;;;;;;6128606;28;83689;-65
2023/09/07 07:00:40;;;;;;;12.65;7.75;;;24.10;60.50;;;;;;6129397;28;80634;-63
2023/09/07 07:03:41;;;;;;;13.13;7.60;;;24.20;60.60;;;;;;6127612;28;81966;-62
2023/09/07 07:06:41;;;;;;;13.20;7.65;;;24.10;60.50;;;;;;6128604;28;83649;-64
2023/09/07 07:09:42;;;;;;;11.82;8.02;;;24.10;60.70;;;;;;6128286;28;83694;-63
2023/09/07 07:12:43;;;;;;;12.38;7.93;;;24.10;60.80;;;;;;6132016;28;81551;-63
2023/09/07 07:15:44;;;;;;;11.48;7.15;;;24.20;60.60;;;;;;6127038;28;83231;-63
2023/09/07 07:18:44;;;;;;;16.13;7.93;;;24.20;60.70;;;;;;6122852;28;82787;-63
2023/09/07 07:21:45;;;;;;;13.43;7.78;;;24.20;60.80;;;;;;6136649;28;81855;-64
2023/09/07 07:24:46;;;;;;;11.60;7.35;;;24.20;61.10;;;;;;6131275;28;83405;-64
2023/09/07 07:27:47;;;;;;;14.57;7.70;;;24.20;61.40;;;;;;6126754;28;83596;-62
2023/09/07 07:30:48;;;;;;;13.95;8.13;;;24.20;61.80;;;;;;6129458;28;83307;-64
2023/09/07 07:33:49;;;;;;;14.68;8.68;;;24.10;61.80;;;;;;6134247;28;83234;-65
2023/09/07 07:36:50;;;;;;;12.27;8.10;;;24.20;62.00;;;;;;6128343;28;82175;-64
2023/09/07 07:39:51;;;;;;;13.82;7.80;;;24.20;62.30;;;;;;6125086;28;83426;-64
2023/09/07 07:42:51;;;;;;;13.25;6.85;;;24.20;62.30;;;;;;6130184;28;82462;-63
2023/09/07 07:45:53;;;;;;;10.93;7.30;;;24.20;62.10;;;;;;6127654;28;81806;-64
2023/09/07 07:48:53;;;;;;;11.75;7.45;;;24.20;63.20;;;;;;6126577;28;82228;-64
2023/09/07 07:51:55;;;;;;;8.48;5.68;;;24.30;63.00;;;;;;6128302;28;80799;-50
2023/09/07 07:54:56;;;;;;;12.93;6.40;;;24.30;62.40;;;;;;6124217;28;80576;-49
2023/09/07 07:57:57;;;;;;;8.70;6.07;;;24.30;62.30;;;;;;6123125;28;83052;-54
2023/09/07 08:00:58;;;;;;;9.55;5.93;;;24.30;62.00;;;;;;6124102;28;82316;-50
2023/09/07 08:04:03;;;;;;;9.33;6.47;;;24.30;62.80;;;;;;6123944;28;83385;-55
2023/09/07 08:07:04;;;;;;;10.00;6.47;;;24.30;63.80;;;;;;6124342;28;81919;-48
2023/09/07 08:10:06;;;;;;;14.40;6.88;;;24.30;63.60;;;;;;6126738;28;83267;-48
2023/09/07 08:13:07;;;;;;;9.70;6.00;;;24.40;63.00;;;;;;6127829;28;82124;-53
2023/09/07 08:16:08;;;;;;;11.10;6.18;;;24.40;63.50;;;;;;6125895;28;83841;-49
2023/09/07 08:19:08;;;;;;;11.15;6.53;;;24.40;63.00;;;;;;6127405;28;83497;-52
2023/09/07 08:22:10;;;;;;;13.10;6.35;;;24.40;63.50;;;;;;6140323;28;83318;-53
2023/09/07 08:25:12;;;;;;;12.77;6.78;;;24.40;63.00;;;;;;6125019;28;83505;-49
2023/09/07 08:28:15;;;;;;;10.45;6.50;;;24.40;62.70;;;;;;6126124;28;81899;-52
2023/09/07 08:31:21;;;;;;;12.25;7.18;;;24.40;63.00;;;;;;6113428;28;80404;-50
2023/09/07 08:34:23;;;;;;;11.98;7.05;;;24.40;62.90;;;;;;6129042;28;80625;-52
2023/09/07 08:37:24;;;;;;;10.18;6.75;;;24.50;62.80;;;;;;6129634;28;80858;-52
2023/09/07 08:40:27;;;;;;;13.48;8.32;;;24.50;63.00;;;;;;6130141;28;86174;-51
2023/09/07 08:43:27;;;;;;;10.95;7.22;;;24.60;63.10;;;;;;6129273;28;80635;-48
2023/09/07 08:46:30;;;;;;;12.15;7.28;;;24.60;63.10;;;;;;6128055;28;80941;-55
2023/09/07 08:49:32;;;;;;;10.82;6.25;;;24.60;63.00;;;;;;6129521;28;80683;-52
2023/09/07 08:52:32;;;;;;;13.23;7.70;;;24.60;62.80;;;;;;6129708;28;80478;-53
2023/09/07 08:55:33;;;;;;;11.98;6.70;;;24.60;63.30;;;;;;6126435;28;80558;-51
2023/09/07 08:58:33;;;;;;;10.75;7.00;;;24.70;63.00;;;;;;6128070;28;80815;-55
2023/09/07 09:01:34;;;;;;;11.20;6.97;;;24.70;63.50;;;;;;6125813;28;80866;-54
2023/09/07 09:04:35;;;;;;;9.98;7.15;;;24.70;63.00;;;;;;6135627;28;80498;-52
2023/09/07 09:07:35;;;;;;;10.82;7.35;;;24.70;62.70;;;;;;6133336;28;80762;-53
2023/09/07 09:10:36;;;;;;;10.48;6.93;;;24.70;62.90;;;;;;6132553;28;80494;-50
2023/09/07 09:13:37;;;;;;;10.32;6.85;;;24.80;62.80;;;;;;6128397;28;80846;-51
2023/09/07 09:16:37;;;;;;;11.35;7.85;;;24.80;62.90;;;;;;6128080;28;82440;-51
2023/09/07 09:19:38;;;;;;;10.30;6.70;;;24.80;62.60;;;;;;6129291;28;80089;-53
2023/09/07 09:22:38;;;;;;;11.02;6.72;;;24.90;63.00;;;;;;6126638;28;88175;-54
2023/09/07 09:25:39;;;;;;;12.82;7.18;;;24.90;62.60;;;;;;6128906;28;80147;-50
2023/09/07 09:28:39;;;;;;;12.20;6.97;;;24.90;62.60;;;;;;6137840;28;80604;-51
2023/09/07 09:31:40;;;;;;;9.38;6.68;;;24.90;62.30;;;;;;6125934;28;80918;-52
2023/09/07 09:34:41;;;;;;;12.73;7.15;;;24.90;62.50;;;;;;6122290;28;80340;-52
2023/09/07 09:37:41;;;;;;;9.50;6.75;;;25.00;62.50;;;;;;6120052;28;80451;-52
2023/09/07 09:40:42;;;;;;;12.18;7.10;;;25.10;62.50;;;;;;6129335;28;82144;-52
2023/09/07 09:43:44;;;;;;;10.98;7.53;;;25.00;62.90;;;;;;6127013;28;83074;-51
2023/09/07 09:46:44;;;;;;;16.45;7.43;;;25.10;62.50;;;;;;6129810;28;81603;-50
2023/09/07 09:49:45;;;;;;;17.25;7.53;;;25.10;62.30;;;;;;6126395;28;80842;-50
2023/09/07 09:52:45;;;;;;;12.57;6.65;;;25.10;62.30;;;;;;6133717;28;80924;-49
2023/09/07 09:55:46;;;;;;;9.57;6.25;;;25.10;62.40;;;;;;6130214;28;82761;-49
2023/09/07 09:58:46;;;;;;;11.80;6.70;;;25.20;62.40;;;;;;6130513;28;80837;-50
2023/09/07 10:01:48;;;;;;;14.23;7.15;;;25.20;62.30;;;;;;6129876;28;82841;-65
2023/09/07 10:04:48;;;;;;;10.68;7.32;;;25.20;62.40;;;;;;6129888;28;80334;-68
2023/09/07 10:07:49;;;;;;;11.35;6.35;;;25.20;62.30;;;;;;6134333;28;80127;-69
2023/09/07 10:10:50;;;;;;;9.80;6.72;;;25.30;62.40;;;;;;6133830;28;81324;-67
2023/09/07 10:13:50;;;;;;;10.63;7.22;;;25.30;61.80;;;;;;6126523;28;81630;-66
2023/09/07 10:16:52;;;;;;;9.60;6.63;;;25.30;62.00;;;;;;6131695;28;80514;-67
2023/09/07 10:19:56;;;;;;;9.38;6.40;;;25.30;61.80;;;;;;6134861;28;80953;-71
2023/09/07 10:22:56;;;;;;;11.00;6.65;;;25.30;61.70;;;;;;6141911;28;81590;-68
2023/09/07 10:25:57;;;;;;;10.73;6.05;;;25.40;61.70;;;;;;6139182;28;82960;-67
2023/09/07 10:28:57;;;;;;;13.75;7.60;;;25.40;61.20;;;;;;6142782;28;81077;-67
2023/09/07 10:31:58;;;;;;;10.70;6.93;;;25.40;61.50;;;;;;6134776;28;80520;-66
2023/09/07 10:34:59;;;;;;;9.95;6.65;;;25.40;61.20;;;;;;6137098;28;80045;-69
2023/09/07 10:38:00;;;;;;;9.25;6.47;;;25.40;60.90;;;;;;6134734;28;80351;-67
2023/09/07 10:41:01;;;;;;;9.35;6.60;;;25.50;61.00;;;;;;6135367;28;81357;-72
2023/09/07 10:44:01;;;;;;;7.35;5.75;;;25.50;61.00;;;;;;6144863;28;82788;-67
2023/09/07 10:47:02;;;;;;;8.20;6.43;;;25.50;61.40;;;;;;6145059;28;80490;-64
2023/09/07 10:50:03;;;;;;;6.57;5.38;;;25.50;60.80;;;;;;6135351;28;81069;-68
2023/09/07 10:53:03;;;;;;;9.85;5.82;;;25.50;60.60;;;;;;6135279;28;80756;-66
2023/09/07 10:56:04;;;;;;;10.25;6.45;;;25.60;60.40;;;;;;6143874;28;80737;-67
2023/09/07 10:59:04;;;;;;;8.35;5.72;;;25.60;60.60;;;;;;6132671;28;81483;-69
2023/09/07 11:02:05;;;;;;;8.30;6.40;;;25.60;60.20;;;;;;6133635;28;80423;-67
2023/09/07 11:05:06;;;;;;;8.95;5.93;;;25.60;60.20;;;;;;6133413;28;81389;-67
2023/09/07 11:08:07;;;;;;;7.78;5.78;;;25.60;59.80;;;;;;6134097;28;81714;-66
2023/09/07 11:11:07;;;;;;;7.10;5.57;;;25.60;60.10;;;;;;6130522;28;85295;-59
2023/09/07 11:14:08;;;;;;;8.88;6.10;;;25.70;60.00;;;;;;6141539;28;80074;-67
2023/09/07 11:17:09;;;;;;;8.80;5.70;;;25.70;60.20;;;;;;6146839;28;81433;-67
2023/09/07 11:20:10;;;;;;;9.00;5.55;;;25.70;59.80;;;;;;6124504;28;80338;-67
2023/09/07 11:23:11;;;;;;;7.55;5.55;;;25.70;59.80;;;;;;6132898;28;80658;-69
2023/09/07 11:26:11;;;;;;;6.65;5.30;;;25.70;60.10;;;;;;6136498;28;80819;-66
2023/09/07 11:29:12;;;;;;;8.85;5.95;;;25.70;60.20;;;;;;6132007;28;80086;-69
2023/09/07 11:32:13;;;;;;;6.75;5.22;;;25.70;60.60;;;;;;6130278;28;82531;-54
2023/09/07 11:35:13;;;;;;;14.30;5.05;;;25.70;60.60;;;;;;6131224;28;80598;-48
2023/09/07 11:38:14;;;;;;;8.15;5.45;;;25.70;60.50;;;;;;6130634;28;81992;-49
2023/09/07 11:41:14;;;;;;;11.75;5.78;;;25.70;60.60;;;;;;6129250;28;81255;-52
2023/09/07 11:44:15;;;;;;;6.78;4.60;;;25.70;60.80;;;;;;6132411;28;82176;-52
2023/09/07 11:47:16;;;;;;;10.15;4.93;;;25.70;60.80;;;;;;6131171;28;81226;-50
2023/09/07 11:50:17;;;;;;;7.85;5.10;;;25.70;61.40;;;;;;6132014;28;81139;-66
2023/09/07 11:53:17;;;;;;;9.07;5.28;;;25.70;60.90;;;;;;6133869;28;81163;-68
2023/09/07 11:56:18;;;;;;;6.85;5.38;;;25.80;61.00;;;;;;6131024;28;80983;-69
2023/09/07 11:59:18;;;;;;;8.20;5.20;;;25.80;61.00;;;;;;6134519;28;80670;-68
2023/09/07 12:02:21;;;;;;;8.50;5.47;;;25.80;61.10;;;;;;6132380;28;80052;-70
2023/09/07 12:05:21;;;;;;;9.00;5.28;;;25.80;60.90;;;;;;6131577;28;80593;-67
2023/09/07 12:08:22;;;;;;;7.18;5.35;;;25.80;60.90;;;;;;6130747;28;81733;-67
2023/09/07 12:11:22;;;;;;;7.93;4.95;;;25.80;60.70;;;;;;6132438;28;81224;-51
2023/09/07 12:14:23;;;;;;;9.35;5.93;;;25.80;60.70;;;;;;6130427;28;80809;-52
2023/09/07 12:17:23;;;;;;;8.15;5.35;;;25.80;60.70;;;;;;6132157;28;80293;-52
2023/09/07 12:20:24;;;;;;;9.02;4.80;;;25.80;60.80;;;;;;6122397;28;80948;-52
2023/09/07 12:23:24;;;;;;;7.93;5.40;;;25.80;60.50;;;;;;6129872;28;80837;-50
2023/09/07 12:26:25;;;;;;;5.82;5.00;;;25.80;60.70;;;;;;6129471;28;81597;-51
2023/09/07 12:29:25;;;;;;;5.80;4.30;;;25.90;60.50;;;;;;6132300;28;81835;-66
2023/09/07 12:32:26;;;;;;;9.18;5.55;;;25.90;60.90;;;;;;6131928;28;80813;-65
2023/09/07 12:35:27;;;;;;;12.18;5.43;;;25.90;60.70;;;;;;6130872;28;81454;-66
2023/09/07 12:38:29;;;;;;;19.42;7.15;;;25.90;60.50;;;;;;6128623;28;80644;-66
2023/09/07 12:41:30;;;;;;;8.15;5.57;;;25.90;60.70;;;;;;6132187;28;80715;-66
2023/09/07 12:44:32;;;;;;;12.77;4.97;;;25.90;60.50;;;;;;6131478;28;80865;-67
2023/09/07 12:47:32;;;;;;;7.97;5.13;;;25.90;60.90;;;;;;6127968;28;82800;-69
2023/09/07 12:50:33;;;;;;;8.23;5.43;;;25.90;60.80;;;;;;6130765;28;81627;-68
2023/09/07 12:53:33;;;;;;;8.85;5.30;;;25.90;60.80;;;;;;6123935;28;81537;-71
2023/09/07 12:56:34;;;;;;;9.18;5.55;;;25.90;60.90;;;;;;6125341;28;80670;-69
2023/09/07 12:59:34;;;;;;;9.27;5.25;;;25.90;60.20;;;;;;6129053;28;80106;-68
2023/09/07 13:02:35;;;;;;;10.05;5.07;;;25.90;60.60;;;;;;6141142;28;80381;-68
2023/09/07 13:05:36;;;;;;;9.00;5.18;;;25.90;59.70;;;;;;6142605;28;81042;-66
2023/09/07 13:08:36;;;;;;;9.07;5.45;;;25.90;59.80;;;;;;6125472;28;80693;-73
2023/09/07 13:11:39;;;;;;;8.85;4.93;;;25.90;59.60;;;;;;6127863;28;80716;-61
2023/09/07 13:14:39;;;;;;;9.82;4.78;;;25.90;59.50;;;;;;6136951;28;82696;-63
2023/09/07 13:17:40;;;;;;;10.35;4.95;;;25.80;59.70;;;;;;6127454;28;80467;-62
2023/09/07 13:20:40;;;;;;;6.93;5.07;;;25.80;59.50;;;;;;6122491;28;81647;-64
2023/09/07 13:23:41;;;;;;;9.32;5.20;;;25.80;59.60;;;;;;6128837;28;80717;-63
2023/09/07 13:26:41;;;;;;;6.68;5.00;;;25.80;59.50;;;;;;6132986;28;80867;-64
2023/09/07 13:29:42;;;;;;;9.40;5.72;;;25.80;59.60;;;;;;6126672;28;80607;-63
2023/09/07 13:32:45;;;;;;;7.75;4.97;;;25.80;59.80;;;;;;6117669;28;80329;-63
2023/09/07 13:35:46;;;;;;;7.43;5.10;;;25.80;60.00;;;;;;6127132;28;81475;-64
2023/09/07 13:38:46;;;;;;;8.55;5.53;;;25.80;60.10;;;;;;6129576;28;80843;-63
2023/09/07 13:41:47;;;;;;;11.07;5.00;;;25.80;60.30;;;;;;6128257;28;80681;-57
2023/09/07 13:44:49;;;;;;;7.07;5.22;;;25.80;60.30;;;;;;6140322;28;80934;-57
2023/09/07 13:47:50;;;;;;;9.82;5.07;;;25.80;60.10;;;;;;6127677;28;81362;-58
2023/09/07 13:50:50;;;;;;;8.05;5.05;;;25.80;60.00;;;;;;6128624;28;80364;-57
2023/09/07 13:53:51;;;;;;;6.45;4.93;;;25.70;60.00;;;;;;6132880;28;80634;-58
2023/09/07 13:56:51;;;;;;;10.02;4.75;;;25.70;60.20;;;;;;6133112;28;84433;-58
2023/09/07 13:59:52;;;;;;;7.47;4.78;;;25.70;60.10;;;;;;6132679;28;81593;-58
2023/09/07 14:02:52;;;;;;;6.30;3.85;;;25.70;60.20;;;;;;6130305;28;80825;-58
2023/09/07 14:05:53;;;;;;;5.60;4.75;;;25.70;60.70;;;;;;6132779;28;81243;-59
2023/09/07 14:08:54;;;;;;;7.03;4.47;;;25.70;60.50;;;;;;6132664;28;80519;-57
2023/09/07 14:11:54;;;;;;;5.53;4.75;;;25.70;60.40;;;;;;6131959;28;80260;-59
2023/09/07 14:14:55;;;;;;;8.27;4.35;;;25.70;60.50;;;;;;6132264;28;80529;-58
2023/09/07 14:17:55;;;;;;;5.85;4.63;;;25.70;60.60;;;;;;6132478;28;81134;-47
2023/09/07 14:21:00;;;;;;;6.22;4.90;;;25.60;60.50;;;;;;6121759;28;80359;-51
2023/09/07 14:24:03;;;;;;;5.30;4.13;;;25.60;60.70;;;;;;6132079;28;81035;-50
2023/09/07 14:27:04;;;;;;;6.63;4.55;;;25.60;60.60;;;;;;6132391;28;80740;-49
2023/09/07 14:30:04;;;;;;;5.45;4.30;;;25.60;60.80;;;;;;6131938;28;80766;-53
2023/09/07 14:33:05;;;;;;;7.25;4.35;;;25.60;60.80;;;;;;6122048;28;81845;-51
2023/09/07 14:36:06;;;;;;;6.93;4.50;;;25.60;60.70;;;;;;6131495;28;81641;-59
2023/09/07 14:39:08;;;;;;;6.07;4.57;;;25.60;60.70;;;;;;6131545;28;80885;-58
2023/09/07 14:42:13;;;;;;;5.80;4.32;;;25.60;61.00;;;;;;6131988;28;80418;-59
2023/09/07 14:45:14;;;;;;;5.78;4.57;;;25.50;60.90;;;;;;6132483;28;81855;-57
2023/09/07 14:48:14;;;;;;;7.82;4.80;;;25.50;60.80;;;;;;6129442;28;80385;-59
2023/09/07 14:51:15;;;;;;;6.80;4.40;;;25.50;60.60;;;;;;6127932;28;82110;-60
2023/09/07 14:54:16;;;;;;;16.02;4.70;;;25.60;61.00;;;;;;6125708;28;81598;-54
2023/09/07 14:57:16;;;;;;;13.82;5.20;;;25.60;62.30;;;;;;6130615;28;84718;-50
2023/09/07 15:00:17;;;;;;;9.40;4.28;;;25.60;62.10;;;;;;6137487;28;81017;-51
2023/09/07 15:03:17;;;;;;;11.98;5.32;;;25.60;62.30;;;;;;6132739;28;83983;-49
2023/09/07 15:06:18;;;;;;;9.93;4.65;;;25.60;62.30;;;;;;6133783;28;80417;-53
2023/09/07 15:09:19;;;;;;;12.63;5.40;;;25.60;62.50;;;;;;6125301;28;82554;-50
2023/09/07 15:12:19;;;;;;;8.38;4.85;;;25.60;62.50;;;;;;6129990;28;80510;-48
2023/09/07 15:15:20;;;;;;;15.15;5.50;;;25.70;62.50;;;;;;6129253;28;84772;-51
2023/09/07 15:18:20;;;;;;;8.32;4.75;;;25.70;62.30;;;;;;6129344;28;83605;-48
2023/09/07 15:21:21;;;;;;;8.05;4.53;;;25.70;62.20;;;;;;6119780;28;82989;-51
2023/09/07 15:24:21;;;;;;;6.97;5.22;;;25.70;62.60;;;;;;6128700;28;81805;-50
2023/09/07 15:27:22;;;;;;;10.00;5.32;;;25.70;62.40;;;;;;6127840;28;80381;-51
2023/09/07 15:30:22;;;;;;;11.10;4.90;;;25.70;62.20;;;;;;6116107;28;82134;-58
2023/09/07 15:33:23;;;;;;;7.43;4.55;;;25.70;62.30;;;;;;6120932;28;81077;-72